Huvudsida
METAR-TAF:

METAR-TAF

Flygplatser :

Vardø, Norge

Vardø flygplats. Svartnes

latitud: 70-21N, longitud: 031-03E, höjd: 12 m

Aktuellt väderrapport

Denna rapport gjordes för 6 timmar och 25 minuter sedan, klockan 20:50 UTC
Vind 12 kt från syd/sydost
Temperatur -2°C
Fuktighet 86%
Tryck 1012 hPa
Sikt: 4000 m
Brutna moln på en höjd av 800 ft
lätt snö

METAR: ENSS 182050Z 15012KT 4000 -SN BKN008 M02/M04 Q1012 RMK WIND 500FT 15013KT

Tid: 04:15 (03:15 UTC)


TAF: saknas

Aktuella väderrapporter och prognoser från 4000 flygplatser (METAR- och TAF-rapporter).

De tillgängliga stationerna syns som gula och röda prickar på kartan.

För musen över prickarna för att se namnen på stationerna.

Klicka sedan för att få väderrapporter och prognoser.

För att ändra kartan: Klicka på de gröna knapparna med ett svart kors på för att zooma in; den gröna knappen med ett streck på för att zooma ut; eller på de gröna pilarna för angränsande kartor.


METAR-TAF: